sensor_id;sensor_type;location;lat;lon;timestamp;P1;durP1;ratioP1;P2;durP2;ratioP2
37527;SDS011;23372;52.050;4.810;2023-10-08T00:02:03;19.27;;;6.63;;
37527;SDS011;23372;52.050;4.810;2023-10-08T00:04:30;19.65;;;6.13;;
37527;SDS011;23372;52.050;4.810;2023-10-08T00:07:02;17.95;;;6.78;;
37527;SDS011;23372;52.050;4.810;2023-10-08T00:09:34;27.48;;;6.53;;
37527;SDS011;23372;52.050;4.810;2023-10-08T00:12:03;24.17;;;6.70;;
37527;SDS011;23372;52.050;4.810;2023-10-08T00:14:29;24.92;;;7.05;;
37527;SDS011;23372;52.050;4.810;2023-10-08T00:16:55;19.05;;;5.72;;
37527;SDS011;23372;52.050;4.810;2023-10-08T00:19:20;25.70;;;6.57;;
37527;SDS011;23372;52.050;4.810;2023-10-08T00:21:46;21.38;;;6.57;;
37527;SDS011;23372;52.050;4.810;2023-10-08T00:24:14;20.98;;;6.95;;
37527;SDS011;23372;52.050;4.810;2023-10-08T00:26:40;22.27;;;6.47;;
37527;SDS011;23372;52.050;4.810;2023-10-08T00:29:06;21.45;;;6.63;;
37527;SDS011;23372;52.050;4.810;2023-10-08T00:31:49;20.63;;;6.45;;
37527;SDS011;23372;52.050;4.810;2023-10-08T00:34:16;27.80;;;7.22;;
37527;SDS011;23372;52.050;4.810;2023-10-08T00:36:44;23.00;;;6.45;;
37527;SDS011;23372;52.050;4.810;2023-10-08T00:39:11;15.70;;;6.35;;
37527;SDS011;23372;52.050;4.810;2023-10-08T00:41:47;18.52;;;6.65;;
37527;SDS011;23372;52.050;4.810;2023-10-08T00:44:14;22.02;;;6.32;;
37527;SDS011;23372;52.050;4.810;2023-10-08T00:46:47;21.20;;;6.32;;
37527;SDS011;23372;52.050;4.810;2023-10-08T00:49:15;18.05;;;6.63;;
37527;SDS011;23372;52.050;4.810;2023-10-08T00:51:47;24.50;;;6.78;;
37527;SDS011;23372;52.050;4.810;2023-10-08T00:54:49;18.20;;;6.10;;
37527;SDS011;23372;52.050;4.810;2023-10-08T00:57:30;21.08;;;7.05;;
37527;SDS011;23372;52.050;4.810;2023-10-08T00:59:59;20.48;;;7.00;;
37527;SDS011;23372;52.050;4.810;2023-10-08T01:02:25;17.73;;;7.07;;
37527;SDS011;23372;52.050;4.810;2023-10-08T01:04:56;18.00;;;7.53;;
37527;SDS011;23372;52.050;4.810;2023-10-08T01:07:22;25.23;;;7.00;;
37527;SDS011;23372;52.050;4.810;2023-10-08T01:09:50;22.95;;;7.80;;
37527;SDS011;23372;52.050;4.810;2023-10-08T01:12:20;26.05;;;8.35;;
37527;SDS011;23372;52.050;4.810;2023-10-08T01:14:48;21.92;;;6.80;;
37527;SDS011;23372;52.050;4.810;2023-10-08T01:17:18;21.63;;;7.05;;
37527;SDS011;23372;52.050;4.810;2023-10-08T01:19:49;25.23;;;8.32;;
37527;SDS011;23372;52.050;4.810;2023-10-08T01:22:34;21.13;;;7.55;;
37527;SDS011;23372;52.050;4.810;2023-10-08T01:24:59;17.67;;;7.10;;
37527;SDS011;23372;52.050;4.810;2023-10-08T01:27:29;24.98;;;8.40;;
37527;SDS011;23372;52.050;4.810;2023-10-08T01:29:59;24.88;;;7.00;;
37527;SDS011;23372;52.050;4.810;2023-10-08T01:32:42;29.05;;;8.77;;
37527;SDS011;23372;52.050;4.810;2023-10-08T01:35:08;27.33;;;6.88;;
37527;SDS011;23372;52.050;4.810;2023-10-08T01:37:47;25.13;;;6.85;;
37527;SDS011;23372;52.050;4.810;2023-10-08T01:40:16;21.30;;;7.63;;
37527;SDS011;23372;52.050;4.810;2023-10-08T01:42:42;26.30;;;7.63;;
37527;SDS011;23372;52.050;4.810;2023-10-08T01:45:08;24.48;;;7.03;;
37527;SDS011;23372;52.050;4.810;2023-10-08T01:47:37;24.33;;;7.45;;
37527;SDS011;23372;52.050;4.810;2023-10-08T01:50:03;18.23;;;6.97;;
37527;SDS011;23372;52.050;4.810;2023-10-08T01:52:46;22.25;;;7.00;;
37527;SDS011;23372;52.050;4.810;2023-10-08T01:55:12;22.13;;;6.70;;
37527;SDS011;23372;52.050;4.810;2023-10-08T01:57:42;18.38;;;7.55;;
37527;SDS011;23372;52.050;4.810;2023-10-08T02:00:08;22.75;;;7.05;;
37527;SDS011;23372;52.050;4.810;2023-10-08T02:02:35;20.45;;;7.35;;
37527;SDS011;23372;52.050;4.810;2023-10-08T02:05:01;17.98;;;6.22;;
37527;SDS011;23372;52.050;4.810;2023-10-08T02:07:29;16.55;;;6.63;;
37527;SDS011;23372;52.050;4.810;2023-10-08T02:09:55;24.08;;;7.65;;
37527;SDS011;23372;52.050;4.810;2023-10-08T02:12:22;23.17;;;7.10;;
37527;SDS011;23372;52.050;4.810;2023-10-08T02:14:48;24.17;;;7.90;;
37527;SDS011;23372;52.050;4.810;2023-10-08T02:17:14;18.42;;;6.95;;
37527;SDS011;23372;52.050;4.810;2023-10-08T02:19:39;17.40;;;7.10;;
37527;SDS011;23372;52.050;4.810;2023-10-08T02:22:06;22.38;;;6.97;;
37527;SDS011;23372;52.050;4.810;2023-10-08T02:24:34;27.75;;;7.95;;
37527;SDS011;23372;52.050;4.810;2023-10-08T02:27:01;23.67;;;7.40;;
37527;SDS011;23372;52.050;4.810;2023-10-08T02:29:28;23.05;;;7.35;;
37527;SDS011;23372;52.050;4.810;2023-10-08T02:31:55;20.40;;;7.63;;
37527;SDS011;23372;52.050;4.810;2023-10-08T02:34:21;24.50;;;7.38;;
37527;SDS011;23372;52.050;4.810;2023-10-08T02:36:47;19.17;;;7.22;;
37527;SDS011;23372;52.050;4.810;2023-10-08T02:39:13;22.17;;;9.15;;
37527;SDS011;23372;52.050;4.810;2023-10-08T02:41:51;19.00;;;7.50;;
37527;SDS011;23372;52.050;4.810;2023-10-08T02:44:19;30.48;;;8.23;;
37527;SDS011;23372;52.050;4.810;2023-10-08T02:46:46;20.15;;;7.75;;
37527;SDS011;23372;52.050;4.810;2023-10-08T02:49:15;29.05;;;8.35;;
37527;SDS011;23372;52.050;4.810;2023-10-08T02:51:49;24.45;;;7.50;;
37527;SDS011;23372;52.050;4.810;2023-10-08T02:54:17;24.55;;;7.40;;
37527;SDS011;23372;52.050;4.810;2023-10-08T02:56:47;28.77;;;8.27;;
37527;SDS011;23372;52.050;4.810;2023-10-08T02:59:22;24.20;;;8.63;;
37527;SDS011;23372;52.050;4.810;2023-10-08T03:01:48;23.45;;;8.07;;
37527;SDS011;23372;52.050;4.810;2023-10-08T03:04:21;26.77;;;8.88;;
37527;SDS011;23372;52.050;4.810;2023-10-08T03:06:48;20.10;;;7.85;;
37527;SDS011;23372;52.050;4.810;2023-10-08T03:09:19;22.17;;;8.18;;
37527;SDS011;23372;52.050;4.810;2023-10-08T03:11:48;21.55;;;8.25;;
37527;SDS011;23372;52.050;4.810;2023-10-08T03:14:17;25.27;;;8.93;;
37527;SDS011;23372;52.050;4.810;2023-10-08T03:16:50;27.05;;;8.73;;
37527;SDS011;23372;52.050;4.810;2023-10-08T03:19:17;20.00;;;8.88;;
37527;SDS011;23372;52.050;4.810;2023-10-08T03:21:46;28.10;;;8.35;;
37527;SDS011;23372;52.050;4.810;2023-10-08T03:24:22;18.98;;;7.88;;
37527;SDS011;23372;52.050;4.810;2023-10-08T03:27:14;23.63;;;8.00;;
37527;SDS011;23372;52.050;4.810;2023-10-08T03:29:46;25.80;;;8.43;;
37527;SDS011;23372;52.050;4.810;2023-10-08T03:32:12;23.83;;;8.98;;
37527;SDS011;23372;52.050;4.810;2023-10-08T03:34:48;21.40;;;9.05;;
37527;SDS011;23372;52.050;4.810;2023-10-08T03:37:15;30.42;;;8.68;;
37527;SDS011;23372;52.050;4.810;2023-10-08T03:39:46;24.75;;;8.30;;
37527;SDS011;23372;52.050;4.810;2023-10-08T03:42:33;23.25;;;8.45;;
37527;SDS011;23372;52.050;4.810;2023-10-08T03:44:59;30.75;;;9.60;;
37527;SDS011;23372;52.050;4.810;2023-10-08T03:47:35;25.15;;;8.90;;
37527;SDS011;23372;52.050;4.810;2023-10-08T03:50:04;23.67;;;7.65;;
37527;SDS011;23372;52.050;4.810;2023-10-08T03:52:31;21.13;;;8.93;;
37527;SDS011;23372;52.050;4.810;2023-10-08T03:54:56;27.83;;;9.43;;
37527;SDS011;23372;52.050;4.810;2023-10-08T03:57:41;24.23;;;9.07;;
37527;SDS011;23372;52.050;4.810;2023-10-08T04:00:07;27.35;;;9.43;;
37527;SDS011;23372;52.050;4.810;2023-10-08T04:02:38;23.45;;;9.48;;
37527;SDS011;23372;52.050;4.810;2023-10-08T04:05:11;26.83;;;9.80;;
37527;SDS011;23372;52.050;4.810;2023-10-08T04:07:44;19.40;;;9.50;;
37527;SDS011;23372;52.050;4.810;2023-10-08T04:10:31;28.35;;;10.02;;
37527;SDS011;23372;52.050;4.810;2023-10-08T04:13:14;25.70;;;9.98;;
37527;SDS011;23372;52.050;4.810;2023-10-08T04:15:41;30.05;;;9.88;;
37527;SDS011;23372;52.050;4.810;2023-10-08T04:18:07;25.92;;;10.80;;
37527;SDS011;23372;52.050;4.810;2023-10-08T04:20:33;25.00;;;10.32;;
37527;SDS011;23372;52.050;4.810;2023-10-08T04:23:16;27.23;;;10.52;;
37527;SDS011;23372;52.050;4.810;2023-10-08T04:25:48;31.67;;;9.88;;
37527;SDS011;23372;52.050;4.810;2023-10-08T04:28:19;25.90;;;9.93;;
37527;SDS011;23372;52.050;4.810;2023-10-08T04:30:45;31.02;;;10.75;;
37527;SDS011;23372;52.050;4.810;2023-10-08T04:33:15;34.70;;;11.48;;
37527;SDS011;23372;52.050;4.810;2023-10-08T04:35:42;24.52;;;11.63;;
37527;SDS011;23372;52.050;4.810;2023-10-08T04:38:21;23.75;;;10.50;;
37527;SDS011;23372;52.050;4.810;2023-10-08T04:40:48;20.50;;;9.85;;
37527;SDS011;23372;52.050;4.810;2023-10-08T04:43:17;29.65;;;10.32;;
37527;SDS011;23372;52.050;4.810;2023-10-08T04:45:55;22.80;;;8.57;;
37527;SDS011;23372;52.050;4.810;2023-10-08T04:48:30;23.38;;;8.90;;
37527;SDS011;23372;52.050;4.810;2023-10-08T04:50:58;20.60;;;8.77;;
37527;SDS011;23372;52.050;4.810;2023-10-08T04:53:31;29.10;;;9.60;;
37527;SDS011;23372;52.050;4.810;2023-10-08T04:56:01;25.83;;;8.70;;
37527;SDS011;23372;52.050;4.810;2023-10-08T04:58:31;20.38;;;7.88;;
37527;SDS011;23372;52.050;4.810;2023-10-08T05:01:02;31.20;;;8.75;;
37527;SDS011;23372;52.050;4.810;2023-10-08T05:06:19;22.95;;;8.27;;
37527;SDS011;23372;52.050;4.810;2023-10-08T05:09:05;30.02;;;7.88;;
37527;SDS011;23372;52.050;4.810;2023-10-08T05:11:38;19.98;;;7.95;;
37527;SDS011;23372;52.050;4.810;2023-10-08T05:14:30;27.10;;;6.95;;
37527;SDS011;23372;52.050;4.810;2023-10-08T05:16:59;27.65;;;7.60;;
37527;SDS011;23372;52.050;4.810;2023-10-08T05:19:28;24.48;;;7.10;;
37527;SDS011;23372;52.050;4.810;2023-10-08T05:22:07;26.52;;;6.90;;
37527;SDS011;23372;52.050;4.810;2023-10-08T05:24:52;25.65;;;6.75;;
37527;SDS011;23372;52.050;4.810;2023-10-08T05:27:37;21.05;;;6.40;;
37527;SDS011;23372;52.050;4.810;2023-10-08T05:30:22;22.92;;;6.72;;
37527;SDS011;23372;52.050;4.810;2023-10-08T05:33:04;16.65;;;5.90;;
37527;SDS011;23372;52.050;4.810;2023-10-08T05:35:43;24.00;;;6.47;;
37527;SDS011;23372;52.050;4.810;2023-10-08T05:38:13;22.67;;;6.68;;
37527;SDS011;23372;52.050;4.810;2023-10-08T05:40:56;24.13;;;6.63;;
37527;SDS011;23372;52.050;4.810;2023-10-08T05:43:26;27.10;;;6.53;;
37527;SDS011;23372;52.050;4.810;2023-10-08T05:46:02;24.15;;;6.45;;
37527;SDS011;23372;52.050;4.810;2023-10-08T05:49:04;21.73;;;6.43;;
37527;SDS011;23372;52.050;4.810;2023-10-08T05:51:33;32.70;;;6.57;;
37527;SDS011;23372;52.050;4.810;2023-10-08T05:54:13;27.88;;;7.25;;
37527;SDS011;23372;52.050;4.810;2023-10-08T05:56:52;35.20;;;8.65;;
37527;SDS011;23372;52.050;4.810;2023-10-08T06:02:18;31.45;;;8.45;;
37527;SDS011;23372;52.050;4.810;2023-10-08T06:05:00;24.17;;;6.80;;
37527;SDS011;23372;52.050;4.810;2023-10-08T06:07:48;30.45;;;8.82;;
37527;SDS011;23372;52.050;4.810;2023-10-08T06:10:15;44.53;;;9.68;;
37527;SDS011;23372;52.050;4.810;2023-10-08T06:13:16;42.13;;;9.70;;
37527;SDS011;23372;52.050;4.810;2023-10-08T06:18:30;33.25;;;9.18;;
37527;SDS011;23372;52.050;4.810;2023-10-08T06:21:06;39.90;;;10.27;;
37527;SDS011;23372;52.050;4.810;2023-10-08T06:23:33;38.38;;;10.15;;
37527;SDS011;23372;52.050;4.810;2023-10-08T06:26:00;27.90;;;9.75;;
37527;SDS011;23372;52.050;4.810;2023-10-08T06:28:35;29.05;;;8.75;;
37527;SDS011;23372;52.050;4.810;2023-10-08T06:31:04;39.40;;;8.32;;
37527;SDS011;23372;52.050;4.810;2023-10-08T06:33:37;36.72;;;7.97;;
37527;SDS011;23372;52.050;4.810;2023-10-08T06:36:06;30.00;;;6.72;;
37527;SDS011;23372;52.050;4.810;2023-10-08T06:38:42;24.13;;;6.07;;
37527;SDS011;23372;52.050;4.810;2023-10-08T06:41:09;29.70;;;6.03;;
37527;SDS011;23372;52.050;4.810;2023-10-08T06:43:39;24.33;;;6.20;;
37527;SDS011;23372;52.050;4.810;2023-10-08T06:46:16;20.95;;;5.85;;
37527;SDS011;23372;52.050;4.810;2023-10-08T06:48:47;24.55;;;6.47;;
37527;SDS011;23372;52.050;4.810;2023-10-08T06:51:14;17.65;;;6.30;;
37527;SDS011;23372;52.050;4.810;2023-10-08T06:53:43;20.48;;;5.05;;
37527;SDS011;23372;52.050;4.810;2023-10-08T06:56:10;16.92;;;5.68;;
37527;SDS011;23372;52.050;4.810;2023-10-08T06:58:37;18.52;;;5.07;;
37527;SDS011;23372;52.050;4.810;2023-10-08T07:01:03;22.15;;;5.10;;
37527;SDS011;23372;52.050;4.810;2023-10-08T07:03:30;21.08;;;5.43;;
37527;SDS011;23372;52.050;4.810;2023-10-08T07:05:56;19.83;;;5.43;;
37527;SDS011;23372;52.050;4.810;2023-10-08T07:08:32;16.27;;;5.07;;
37527;SDS011;23372;52.050;4.810;2023-10-08T07:11:01;10.45;;;4.80;;
37527;SDS011;23372;52.050;4.810;2023-10-08T07:13:31;15.10;;;5.47;;
37527;SDS011;23372;52.050;4.810;2023-10-08T07:15:58;13.15;;;4.90;;
37527;SDS011;23372;52.050;4.810;2023-10-08T07:18:26;17.33;;;5.55;;
37527;SDS011;23372;52.050;4.810;2023-10-08T07:20:52;13.90;;;5.00;;
37527;SDS011;23372;52.050;4.810;2023-10-08T07:23:22;19.40;;;5.10;;
37527;SDS011;23372;52.050;4.810;2023-10-08T07:25:55;17.20;;;5.45;;
37527;SDS011;23372;52.050;4.810;2023-10-08T07:28:40;13.90;;;4.55;;
37527;SDS011;23372;52.050;4.810;2023-10-08T07:31:15;17.00;;;4.55;;
37527;SDS011;23372;52.050;4.810;2023-10-08T07:33:47;17.80;;;4.82;;
37527;SDS011;23372;52.050;4.810;2023-10-08T07:36:40;17.52;;;5.22;;
37527;SDS011;23372;52.050;4.810;2023-10-08T07:39:07;15.95;;;5.25;;
37527;SDS011;23372;52.050;4.810;2023-10-08T07:41:34;19.20;;;5.47;;
37527;SDS011;23372;52.050;4.810;2023-10-08T07:44:00;17.30;;;5.70;;
37527;SDS011;23372;52.050;4.810;2023-10-08T07:46:26;21.52;;;5.88;;
37527;SDS011;23372;52.050;4.810;2023-10-08T07:48:54;18.23;;;5.25;;
37527;SDS011;23372;52.050;4.810;2023-10-08T07:51:20;20.40;;;6.75;;
37527;SDS011;23372;52.050;4.810;2023-10-08T07:53:49;21.63;;;6.25;;
37527;SDS011;23372;52.050;4.810;2023-10-08T07:56:19;25.25;;;5.18;;
37527;SDS011;23372;52.050;4.810;2023-10-08T07:58:45;17.00;;;5.22;;
37527;SDS011;23372;52.050;4.810;2023-10-08T08:01:10;14.32;;;5.68;;
37527;SDS011;23372;52.050;4.810;2023-10-08T08:03:38;13.77;;;4.68;;
37527;SDS011;23372;52.050;4.810;2023-10-08T08:06:06;12.65;;;4.78;;
37527;SDS011;23372;52.050;4.810;2023-10-08T08:08:35;19.30;;;5.80;;
37527;SDS011;23372;52.050;4.810;2023-10-08T08:11:05;12.60;;;4.60;;
37527;SDS011;23372;52.050;4.810;2023-10-08T08:13:40;11.57;;;3.92;;
37527;SDS011;23372;52.050;4.810;2023-10-08T08:16:12;17.92;;;3.70;;
37527;SDS011;23372;52.050;4.810;2023-10-08T08:18:42;13.00;;;3.92;;
37527;SDS011;23372;52.050;4.810;2023-10-08T08:21:09;16.67;;;3.85;;
37527;SDS011;23372;52.050;4.810;2023-10-08T08:23:40;11.30;;;3.55;;
37527;SDS011;23372;52.050;4.810;2023-10-08T08:26:06;13.75;;;3.78;;
37527;SDS011;23372;52.050;4.810;2023-10-08T08:28:38;10.45;;;3.47;;
37527;SDS011;23372;52.050;4.810;2023-10-08T08:31:05;10.98;;;2.92;;
37527;SDS011;23372;52.050;4.810;2023-10-08T08:33:39;11.02;;;3.05;;
37527;SDS011;23372;52.050;4.810;2023-10-08T08:36:23;11.73;;;3.53;;
37527;SDS011;23372;52.050;4.810;2023-10-08T08:38:49;11.73;;;3.10;;
37527;SDS011;23372;52.050;4.810;2023-10-08T08:41:15;11.65;;;3.08;;
37527;SDS011;23372;52.050;4.810;2023-10-08T08:44:05;14.70;;;3.83;;
37527;SDS011;23372;52.050;4.810;2023-10-08T08:46:32;11.13;;;2.83;;
37527;SDS011;23372;52.050;4.810;2023-10-08T08:49:00;10.73;;;3.20;;
37527;SDS011;23372;52.050;4.810;2023-10-08T08:51:32;14.60;;;3.30;;
37527;SDS011;23372;52.050;4.810;2023-10-08T08:54:00;10.70;;;2.80;;
37527;SDS011;23372;52.050;4.810;2023-10-08T08:56:31;11.52;;;3.33;;
37527;SDS011;23372;52.050;4.810;2023-10-08T08:58:59;8.68;;;3.00;;
37527;SDS011;23372;52.050;4.810;2023-10-08T09:01:25;8.65;;;2.72;;
37527;SDS011;23372;52.050;4.810;2023-10-08T09:03:58;12.30;;;2.83;;
37527;SDS011;23372;52.050;4.810;2023-10-08T09:06:26;10.05;;;3.15;;
37527;SDS011;23372;52.050;4.810;2023-10-08T09:08:52;13.27;;;4.15;;
37527;SDS011;23372;52.050;4.810;2023-10-08T09:11:20;13.63;;;2.92;;
37527;SDS011;23372;52.050;4.810;2023-10-08T09:13:46;12.18;;;3.63;;
37527;SDS011;23372;52.050;4.810;2023-10-08T09:18:44;9.52;;;3.28;;
37527;SDS011;23372;52.050;4.810;2023-10-08T09:21:16;14.05;;;4.10;;
37527;SDS011;23372;52.050;4.810;2023-10-08T09:23:44;8.20;;;3.63;;
37527;SDS011;23372;52.050;4.810;2023-10-08T09:26:16;12.57;;;4.30;;
37527;SDS011;23372;52.050;4.810;2023-10-08T09:28:46;13.48;;;3.53;;
37527;SDS011;23372;52.050;4.810;2023-10-08T09:31:13;10.00;;;4.25;;
37527;SDS011;23372;52.050;4.810;2023-10-08T09:33:40;10.93;;;3.90;;
37527;SDS011;23372;52.050;4.810;2023-10-08T09:36:06;16.35;;;4.40;;
37527;SDS011;23372;52.050;4.810;2023-10-08T09:38:36;9.32;;;4.13;;
37527;SDS011;23372;52.050;4.810;2023-10-08T09:41:02;14.30;;;4.30;;
37527;SDS011;23372;52.050;4.810;2023-10-08T09:43:31;10.80;;;4.07;;
37527;SDS011;23372;52.050;4.810;2023-10-08T09:46:03;10.98;;;3.88;;
37527;SDS011;23372;52.050;4.810;2023-10-08T09:48:38;12.40;;;4.35;;
37527;SDS011;23372;52.050;4.810;2023-10-08T09:51:06;15.55;;;4.78;;
37527;SDS011;23372;52.050;4.810;2023-10-08T09:53:41;12.07;;;5.68;;
37527;SDS011;23372;52.050;4.810;2023-10-08T09:56:16;12.20;;;4.60;;
37527;SDS011;23372;52.050;4.810;2023-10-08T09:58:45;11.27;;;4.00;;
37527;SDS011;23372;52.050;4.810;2023-10-08T10:01:14;14.30;;;4.55;;
37527;SDS011;23372;52.050;4.810;2023-10-08T10:03:42;13.57;;;4.68;;
37527;SDS011;23372;52.050;4.810;2023-10-08T10:06:13;10.10;;;3.83;;
37527;SDS011;23372;52.050;4.810;2023-10-08T10:08:41;12.80;;;5.18;;
37527;SDS011;23372;52.050;4.810;2023-10-08T10:11:07;15.40;;;5.30;;
37527;SDS011;23372;52.050;4.810;2023-10-08T10:13:34;11.55;;;5.00;;
37527;SDS011;23372;52.050;4.810;2023-10-08T10:16:04;13.02;;;4.45;;
37527;SDS011;23372;52.050;4.810;2023-10-08T10:18:32;14.25;;;4.65;;
37527;SDS011;23372;52.050;4.810;2023-10-08T10:20:59;10.73;;;4.70;;
37527;SDS011;23372;52.050;4.810;2023-10-08T10:26:24;11.30;;;4.70;;
37527;SDS011;23372;52.050;4.810;2023-10-08T10:31:40;12.70;;;3.97;;
37527;SDS011;23372;52.050;4.810;2023-10-08T10:34:09;15.05;;;4.95;;
37527;SDS011;23372;52.050;4.810;2023-10-08T10:36:38;12.10;;;4.60;;
37527;SDS011;23372;52.050;4.810;2023-10-08T10:39:07;11.40;;;5.20;;
37527;SDS011;23372;52.050;4.810;2023-10-08T10:41:41;16.83;;;5.38;;
37527;SDS011;23372;52.050;4.810;2023-10-08T10:44:09;9.02;;;4.10;;
37527;SDS011;23372;52.050;4.810;2023-10-08T10:46:35;11.45;;;5.07;;
37527;SDS011;23372;52.050;4.810;2023-10-08T10:49:01;11.82;;;4.35;;
37527;SDS011;23372;52.050;4.810;2023-10-08T10:51:41;12.23;;;4.63;;
37527;SDS011;23372;52.050;4.810;2023-10-08T10:54:07;11.35;;;4.05;;
37527;SDS011;23372;52.050;4.810;2023-10-08T10:56:33;10.18;;;4.07;;
37527;SDS011;23372;52.050;4.810;2023-10-08T10:59:06;12.20;;;4.05;;
37527;SDS011;23372;52.050;4.810;2023-10-08T11:01:48;11.95;;;3.92;;
37527;SDS011;23372;52.050;4.810;2023-10-08T11:04:18;8.77;;;3.85;;
37527;SDS011;23372;52.050;4.810;2023-10-08T11:06:45;8.75;;;3.47;;
37527;SDS011;23372;52.050;4.810;2023-10-08T11:09:13;7.22;;;3.70;;
37527;SDS011;23372;52.050;4.810;2023-10-08T11:11:41;8.57;;;3.53;;
37527;SDS011;23372;52.050;4.810;2023-10-08T11:14:10;11.50;;;4.07;;
37527;SDS011;23372;52.050;4.810;2023-10-08T11:16:43;7.55;;;3.90;;
37527;SDS011;23372;52.050;4.810;2023-10-08T11:19:10;13.43;;;4.18;;
37527;SDS011;23372;52.050;4.810;2023-10-08T11:21:50;9.43;;;4.68;;
37527;SDS011;23372;52.050;4.810;2023-10-08T11:24:32;7.97;;;4.00;;
37527;SDS011;23372;52.050;4.810;2023-10-08T11:26:59;9.30;;;4.65;;
37527;SDS011;23372;52.050;4.810;2023-10-08T11:29:40;11.77;;;4.65;;
37527;SDS011;23372;52.050;4.810;2023-10-08T11:32:07;8.38;;;4.32;;
37527;SDS011;23372;52.050;4.810;2023-10-08T11:34:37;11.57;;;4.55;;
37527;SDS011;23372;52.050;4.810;2023-10-08T11:37:06;9.95;;;4.93;;
37527;SDS011;23372;52.050;4.810;2023-10-08T11:39:45;9.48;;;5.60;;
37527;SDS011;23372;52.050;4.810;2023-10-08T11:42:11;9.90;;;4.68;;
37527;SDS011;23372;52.050;4.810;2023-10-08T11:44:57;10.63;;;5.03;;
37527;SDS011;23372;52.050;4.810;2023-10-08T11:47:45;13.27;;;5.93;;
37527;SDS011;23372;52.050;4.810;2023-10-08T11:50:14;10.85;;;5.65;;
37527;SDS011;23372;52.050;4.810;2023-10-08T11:52:44;14.25;;;5.53;;
37527;SDS011;23372;52.050;4.810;2023-10-08T11:55:11;9.35;;;5.63;;
37527;SDS011;23372;52.050;4.810;2023-10-08T11:57:50;9.90;;;5.25;;
37527;SDS011;23372;52.050;4.810;2023-10-08T12:00:16;10.75;;;6.05;;
37527;SDS011;23372;52.050;4.810;2023-10-08T12:02:45;14.55;;;6.07;;
37527;SDS011;23372;52.050;4.810;2023-10-08T12:05:12;14.02;;;6.47;;
37527;SDS011;23372;52.050;4.810;2023-10-08T12:07:45;13.93;;;6.32;;
37527;SDS011;23372;52.050;4.810;2023-10-08T12:10:16;12.77;;;6.57;;
37527;SDS011;23372;52.050;4.810;2023-10-08T12:12:47;15.30;;;6.43;;
37527;SDS011;23372;52.050;4.810;2023-10-08T12:15:13;10.57;;;6.07;;
37527;SDS011;23372;52.050;4.810;2023-10-08T12:17:44;13.82;;;7.03;;
37527;SDS011;23372;52.050;4.810;2023-10-08T12:20:18;12.75;;;6.30;;
37527;SDS011;23372;52.050;4.810;2023-10-08T12:22:51;11.32;;;5.80;;
37527;SDS011;23372;52.050;4.810;2023-10-08T12:25:17;10.93;;;5.63;;
37527;SDS011;23372;52.050;4.810;2023-10-08T12:27:43;11.68;;;5.57;;
37527;SDS011;23372;52.050;4.810;2023-10-08T12:30:08;11.75;;;5.50;;
37527;SDS011;23372;52.050;4.810;2023-10-08T12:32:36;8.57;;;4.60;;
37527;SDS011;23372;52.050;4.810;2023-10-08T12:35:07;9.70;;;5.47;;
37527;SDS011;23372;52.050;4.810;2023-10-08T12:37:41;9.95;;;5.55;;
37527;SDS011;23372;52.050;4.810;2023-10-08T12:40:09;12.38;;;6.20;;
37527;SDS011;23372;52.050;4.810;2023-10-08T12:42:47;11.40;;;5.47;;
37527;SDS011;23372;52.050;4.810;2023-10-08T12:45:15;10.80;;;6.03;;
37527;SDS011;23372;52.050;4.810;2023-10-08T12:47:45;11.52;;;5.30;;
37527;SDS011;23372;52.050;4.810;2023-10-08T12:50:22;7.38;;;4.78;;
37527;SDS011;23372;52.050;4.810;2023-10-08T12:52:54;10.43;;;5.60;;
37527;SDS011;23372;52.050;4.810;2023-10-08T12:55:20;11.48;;;5.45;;
37527;SDS011;23372;52.050;4.810;2023-10-08T12:57:53;11.70;;;5.50;;
37527;SDS011;23372;52.050;4.810;2023-10-08T13:00:23;8.55;;;5.38;;
37527;SDS011;23372;52.050;4.810;2023-10-08T13:02:50;11.95;;;5.60;;
37527;SDS011;23372;52.050;4.810;2023-10-08T13:05:22;8.10;;;4.55;;
37527;SDS011;23372;52.050;4.810;2023-10-08T13:07:57;12.85;;;5.28;;
37527;SDS011;23372;52.050;4.810;2023-10-08T13:10:28;11.20;;;6.47;;
37527;SDS011;23372;52.050;4.810;2023-10-08T13:12:56;19.45;;;6.93;;
37527;SDS011;23372;52.050;4.810;2023-10-08T13:15:21;12.18;;;6.65;;
37527;SDS011;23372;52.050;4.810;2023-10-08T13:17:50;13.68;;;7.50;;
37527;SDS011;23372;52.050;4.810;2023-10-08T13:20:16;18.85;;;8.32;;
37527;SDS011;23372;52.050;4.810;2023-10-08T13:22:42;11.82;;;7.40;;
37527;SDS011;23372;52.050;4.810;2023-10-08T13:25:09;15.23;;;6.75;;
37527;SDS011;23372;52.050;4.810;2023-10-08T13:27:36;12.57;;;7.05;;
37527;SDS011;23372;52.050;4.810;2023-10-08T13:30:05;14.27;;;7.35;;
37527;SDS011;23372;52.050;4.810;2023-10-08T13:32:33;13.32;;;7.35;;
37527;SDS011;23372;52.050;4.810;2023-10-08T13:35:05;12.63;;;6.93;;
37527;SDS011;23372;52.050;4.810;2023-10-08T13:37:35;16.75;;;7.20;;
37527;SDS011;23372;52.050;4.810;2023-10-08T13:40:01;12.95;;;7.55;;
37527;SDS011;23372;52.050;4.810;2023-10-08T13:42:27;14.48;;;6.88;;
37527;SDS011;23372;52.050;4.810;2023-10-08T13:44:54;16.88;;;7.13;;
37527;SDS011;23372;52.050;4.810;2023-10-08T13:47:33;12.40;;;6.63;;
37527;SDS011;23372;52.050;4.810;2023-10-08T13:49:58;21.98;;;7.60;;
37527;SDS011;23372;52.050;4.810;2023-10-08T13:52:24;14.43;;;7.13;;
37527;SDS011;23372;52.050;4.810;2023-10-08T13:54:54;11.48;;;6.35;;
37527;SDS011;23372;52.050;4.810;2023-10-08T13:57:19;12.65;;;5.88;;
37527;SDS011;23372;52.050;4.810;2023-10-08T13:59:46;12.07;;;5.72;;
37527;SDS011;23372;52.050;4.810;2023-10-08T14:02:12;11.60;;;5.90;;
37527;SDS011;23372;52.050;4.810;2023-10-08T14:04:39;17.60;;;7.75;;
37527;SDS011;23372;52.050;4.810;2023-10-08T14:07:15;18.75;;;7.80;;
37527;SDS011;23372;52.050;4.810;2023-10-08T14:09:42;9.75;;;5.05;;
37527;SDS011;23372;52.050;4.810;2023-10-08T14:12:10;15.05;;;5.32;;
37527;SDS011;23372;52.050;4.810;2023-10-08T14:14:38;13.15;;;5.15;;
37527;SDS011;23372;52.050;4.810;2023-10-08T14:17:08;8.65;;;4.85;;
37527;SDS011;23372;52.050;4.810;2023-10-08T14:19:39;11.68;;;5.13;;
37527;SDS011;23372;52.050;4.810;2023-10-08T14:22:11;12.05;;;5.03;;
37527;SDS011;23372;52.050;4.810;2023-10-08T14:24:39;17.00;;;5.75;;
37527;SDS011;23372;52.050;4.810;2023-10-08T14:27:05;14.40;;;6.15;;
37527;SDS011;23372;52.050;4.810;2023-10-08T14:29:40;15.63;;;5.88;;
37527;SDS011;23372;52.050;4.810;2023-10-08T14:32:08;10.55;;;5.80;;
37527;SDS011;23372;52.050;4.810;2023-10-08T14:34:35;17.38;;;5.68;;
37527;SDS011;23372;52.050;4.810;2023-10-08T14:37:19;9.68;;;4.80;;
37527;SDS011;23372;52.050;4.810;2023-10-08T14:40:03;12.23;;;4.95;;
37527;SDS011;23372;52.050;4.810;2023-10-08T14:42:48;11.55;;;4.43;;
37527;SDS011;23372;52.050;4.810;2023-10-08T14:45:43;13.07;;;4.47;;
37527;SDS011;23372;52.050;4.810;2023-10-08T14:48:11;15.43;;;5.75;;
37527;SDS011;23372;52.050;4.810;2023-10-08T14:50:38;14.82;;;5.50;;
37527;SDS011;23372;52.050;4.810;2023-10-08T14:53:04;11.63;;;5.20;;
37527;SDS011;23372;52.050;4.810;2023-10-08T14:55:30;12.93;;;5.57;;
37527;SDS011;23372;52.050;4.810;2023-10-08T14:57:59;12.52;;;5.68;;
37527;SDS011;23372;52.050;4.810;2023-10-08T15:00:31;13.73;;;5.65;;
37527;SDS011;23372;52.050;4.810;2023-10-08T15:02:57;10.48;;;5.63;;
37527;SDS011;23372;52.050;4.810;2023-10-08T15:05:27;11.85;;;6.15;;
37527;SDS011;23372;52.050;4.810;2023-10-08T15:07:53;10.65;;;4.97;;
37527;SDS011;23372;52.050;4.810;2023-10-08T15:10:19;12.13;;;5.47;;
37527;SDS011;23372;52.050;4.810;2023-10-08T15:12:46;12.00;;;5.93;;
37527;SDS011;23372;52.050;4.810;2023-10-08T15:15:12;11.07;;;5.50;;